Time;durP1;ratioP1;P1;durP2;ratioP2;P2;SDS_P1;SDS_P2;PMS_P1;PMS_P2;Temp;Humidity;BMP_temperature;BMP_pressure;BME280_temperature;BME280_humidity;BME280_pressure;Samples;Min_cycle;Max_cycle;Signal;HPM_P1;HPM_P2
2021/12/02 00:04:05;;;;;;;5.03;1.60;;;;;;;7.41;97.89;97528.09;3367730;85;98479;-90
2021/12/02 00:09:06;;;;;;;2.67;1.23;;;;;;;7.32;97.83;97529.27;3380065;85;98247;-89
2021/12/02 00:14:13;;;;;;;2.25;0.88;;;;;;;7.27;96.61;97517.45;3374343;86;98727;-87
2021/12/02 00:24:38;;;;;;;3.90;1.20;;;;;;;7.20;96.30;97498.48;3360046;85;98370;-87
2021/12/02 00:29:39;;;;;;;4.30;1.40;;;;;;;7.22;96.11;97505.65;3378791;85;98329;-88
2021/12/02 00:34:46;;;;;;;2.60;1.23;;;;;;;7.23;94.99;97507.97;3346286;85;98041;-87
2021/12/02 00:39:47;;;;;;;2.93;1.40;;;;;;;7.32;93.33;97502.66;3366289;85;98085;-88
2021/12/02 00:44:49;;;;;;;3.07;1.10;;;;;;;7.35;91.89;97522.92;3390565;85;97985;-86
2021/12/02 00:49:50;;;;;;;2.98;0.82;;;;;;;7.33;91.96;97527.48;3390194;85;98916;-88
2021/12/02 00:54:51;;;;;;;2.67;0.67;;;;;;;7.27;89.99;97531.13;3456816;84;98338;-90
2021/12/02 00:59:54;;;;;;;3.17;0.97;;;;;;;7.11;88.91;97552.97;3424952;84;98375;-87
2021/12/02 01:04:56;;;;;;;3.35;0.80;;;;;;;6.93;88.08;97568.98;3385258;85;98400;-84
2021/12/02 01:09:58;;;;;;;2.77;0.80;;;;;;;6.75;87.27;97561.13;3402924;85;29450;-85
2021/12/02 01:14:58;;;;;;;2.10;0.70;;;;;;;6.63;85.54;97568.59;3397627;85;98540;-85
2021/12/02 01:20:00;;;;;;;3.80;1.60;;;;;;;6.49;84.57;97575.67;3470067;84;98386;-85
2021/12/02 01:25:03;;;;;;;1.90;0.67;;;;;;;6.38;82.48;97578.44;3449902;84;98280;-90
2021/12/02 01:30:05;;;;;;;2.27;0.47;;;;;;;6.31;82.70;97604.48;3463295;84;98416;-88
2021/12/02 01:35:07;;;;;;;2.52;0.93;;;;;;;6.22;79.02;97590.00;3442839;84;98317;-84
2021/12/02 01:40:09;;;;;;;2.67;0.50;;;;;;;6.13;80.06;97603.44;3466018;84;32526;-86
2021/12/02 01:45:14;;;;;;;3.80;1.00;;;;;;;6.07;79.01;97604.31;3457403;83;97878;-85
2021/12/02 01:50:20;;;;;;;8.50;1.20;;;;;;;6.03;79.28;97604.96;3456034;84;98142;-86
2021/12/02 01:55:20;;;;;;;3.07;0.70;;;;;;;6.01;79.82;97604.00;3392801;86;98318;-86
2021/12/02 02:00:21;;;;;;;5.97;0.70;;;;;;;6.07;78.01;97609.78;3456791;84;98780;-84
2021/12/02 02:05:22;;;;;;;3.23;1.37;;;;;;;6.10;78.63;97619.85;3460499;84;98350;-85
2021/12/02 02:10:23;;;;;;;2.70;0.77;;;;;;;6.11;81.17;97626.88;3460698;84;31684;-88
2021/12/02 02:15:26;;;;;;;3.10;0.90;;;;;;;6.10;82.03;97633.50;3457963;84;98183;-87
2021/12/02 02:25:53;;;;;;;2.17;0.67;;;;;;;6.05;81.09;97627.17;3450350;83;98386;-87
2021/12/02 02:30:53;;;;;;;4.63;0.80;;;;;;;6.02;79.23;97619.80;3463686;84;98444;-87
2021/12/02 02:35:54;;;;;;;2.23;0.57;;;;;;;5.98;80.20;97632.14;3456558;84;98321;-85
2021/12/02 02:40:57;;;;;;;3.67;0.97;;;;;;;5.98;78.24;97627.27;3454844;84;98290;-87
2021/12/02 02:45:59;;;;;;;2.43;0.57;;;;;;;5.94;79.58;97625.20;3450837;82;98362;-87
2021/12/02 02:50:59;;;;;;;2.07;0.73;;;;;;;5.91;79.46;97621.34;3455518;83;98196;-86
2021/12/02 02:56:17;;;;;;;3.50;0.80;;;;;;;5.87;78.17;97633.48;3443544;84;98319;-83
2021/12/02 03:11:49;;;;;;;2.43;0.50;;;;;;;5.84;75.64;97639.17;3395808;85;98341;-88
2021/12/02 03:16:47;;;;;;;4.33;0.93;;;;;;;5.85;75.14;97635.25;3458310;84;30304;-86
2021/12/02 03:21:48;;;;;;;1.93;0.70;;;;;;;5.87;74.71;97638.94;3447716;84;99226;-85
2021/12/02 03:26:50;;;;;;;4.10;1.13;;;;;;;5.83;74.37;97636.27;3467005;83;98277;-85
2021/12/02 03:31:50;;;;;;;20.13;6.10;;;;;;;5.80;75.57;97647.23;3405206;85;98696;-85
2021/12/02 03:36:52;;;;;;;18.43;5.03;;;;;;;5.76;76.56;97641.80;3464228;84;98978;-86
2021/12/02 03:41:54;;;;;;;4.80;1.40;;;;;;;5.72;77.27;97661.54;3450610;84;98379;-85
2021/12/02 03:46:56;;;;;;;4.30;1.00;;;;;;;5.72;77.52;97666.24;3455603;84;98400;-87
2021/12/02 03:51:56;;;;;;;1.15;0.50;;;;;;;5.71;77.48;97664.67;3468767;84;98164;-86
2021/12/02 03:56:58;;;;;;;3.57;0.97;;;;;;;5.69;78.40;97688.88;3383345;85;98227;-84
2021/12/02 04:02:00;;;;;;;4.97;0.73;;;;;;;5.65;77.35;97693.02;3385015;85;98710;-85
2021/12/02 04:07:02;;;;;;;4.15;0.93;;;;;;;5.65;76.97;97690.30;3334171;86;98740;-85
2021/12/02 04:12:23;;;;;;;2.00;0.50;;;;;;;5.60;76.00;97674.38;3460692;84;98863;-86
2021/12/02 04:17:18;;;;;;;2.98;2.05;;;;;;;5.54;75.99;97668.42;3458717;84;98371;-87
2021/12/02 04:22:18;;;;;;;3.60;1.00;;;;;;;5.42;76.19;97673.06;3391926;85;98556;-83
2021/12/02 04:27:18;;;;;;;4.37;0.53;;;;;;;5.33;73.84;97680.38;3391098;85;98310;-87
2021/12/02 04:32:19;;;;;;;0.53;0.20;;;;;;;5.25;73.13;97684.97;3454577;82;98239;-85
2021/12/02 04:37:20;;;;;;;4.67;0.77;;;;;;;5.14;73.43;97701.42;3459837;84;98498;-85
2021/12/02 04:42:21;;;;;;;0.95;0.33;;;;;;;5.04;73.02;97716.55;3453809;84;98357;-85
2021/12/02 04:47:21;;;;;;;4.50;0.87;;;;;;;4.96;74.02;97721.89;3386524;85;98384;-85
2021/12/02 04:52:22;;;;;;;2.73;1.00;;;;;;;4.90;74.25;97735.75;3386849;85;98444;-84
2021/12/02 04:57:23;;;;;;;2.63;0.47;;;;;;;4.83;75.44;97750.23;3374966;85;98190;-87
2021/12/02 05:02:24;;;;;;;3.97;0.70;;;;;;;4.81;75.81;97745.00;3374358;85;98392;-85
2021/12/02 05:07:26;;;;;;;3.67;0.67;;;;;;;4.77;76.08;97755.15;3459829;84;98516;-86
2021/12/02 05:12:26;;;;;;;3.73;0.63;;;;;;;4.71;76.84;97753.47;3446290;84;98469;-84
2021/12/02 05:17:27;;;;;;;3.03;0.60;;;;;;;4.65;75.93;97772.75;3473677;84;98841;-84
2021/12/02 05:22:29;;;;;;;1.40;0.40;;;;;;;4.58;76.26;97766.00;3460547;83;98342;-85
2021/12/02 05:27:29;;;;;;;6.37;1.30;;;;;;;4.53;76.58;97771.88;3453058;83;98616;-85
2021/12/02 05:32:30;;;;;;;2.63;0.60;;;;;;;4.46;77.09;97787.49;3450009;84;98255;-83
2021/12/02 05:37:31;;;;;;;3.73;0.80;;;;;;;4.41;76.91;97800.95;3457777;84;98457;-84
2021/12/02 05:42:32;;;;;;;4.20;0.73;;;;;;;4.39;77.04;97821.01;3439862;83;98685;-85
2021/12/02 05:47:33;;;;;;;4.03;0.55;;;;;;;4.34;76.63;97806.45;3441560;84;98398;-83
2021/12/02 05:52:34;;;;;;;1.37;0.43;;;;;;;4.30;76.58;97823.39;3459891;83;98067;-83
2021/12/02 05:57:35;;;;;;;2.77;0.50;;;;;;;4.27;76.87;97838.38;3459511;84;98603;-85
2021/12/02 06:02:36;;;;;;;5.30;1.33;;;;;;;4.23;76.77;97854.73;3459272;84;98207;-85
2021/12/02 06:07:37;;;;;;;4.80;0.57;;;;;;;4.19;76.97;97855.91;3456621;84;98297;-84
2021/12/02 06:12:38;;;;;;;5.03;1.17;;;;;;;4.14;75.80;97885.69;3423149;84;98684;-88
2021/12/02 06:17:39;;;;;;;4.37;0.60;;;;;;;4.11;76.14;97886.49;3449507;84;97707;-83
2021/12/02 06:22:41;;;;;;;3.37;0.80;;;;;;;4.09;76.52;97875.81;3452140;84;98098;-82
2021/12/02 06:27:52;;;;;;;3.13;0.70;;;;;;;4.05;76.19;97879.88;3454139;84;98581;-84
2021/12/02 06:32:53;;;;;;;2.30;0.70;;;;;;;4.04;76.74;97898.74;3460053;84;98586;-84
2021/12/02 06:37:54;;;;;;;3.83;0.57;;;;;;;4.05;76.14;97907.09;3464016;83;98295;-82
2021/12/02 06:42:55;;;;;;;4.97;1.10;;;;;;;4.05;76.22;97913.89;3357367;85;139740;-81
2021/12/02 06:48:00;;;;;;;3.77;0.70;;;;;;;4.05;76.47;97917.22;3442836;83;99315;-86
2021/12/02 06:53:01;;;;;;;2.47;0.60;;;;;;;4.05;76.50;97937.63;3441524;83;98662;-83
2021/12/02 06:58:02;;;;;;;3.23;0.90;;;;;;;4.05;76.74;97934.91;3443775;84;32444;-84
2021/12/02 07:03:03;;;;;;;2.07;0.60;;;;;;;4.04;76.70;97951.05;3451650;83;98455;-87
2021/12/02 07:08:05;;;;;;;3.27;1.00;;;;;;;4.02;76.08;97951.44;3453109;84;98284;-88
2021/12/02 07:13:06;;;;;;;2.30;0.67;;;;;;;4.02;76.47;97952.80;3452327;83;98378;-87
2021/12/02 07:18:12;;;;;;;1.53;0.40;;;;;;;4.01;75.12;97954.54;3448067;84;98296;-87
2021/12/02 07:23:10;;;;;;;3.10;0.60;;;;;;;3.97;75.04;97960.00;3442723;84;98915;-86
2021/12/02 07:28:13;;;;;;;4.63;1.00;;;;;;;3.94;74.24;97964.84;3449597;84;33730;-86
2021/12/02 07:33:14;;;;;;;3.33;0.80;;;;;;;3.92;73.85;97969.12;3446866;84;98571;-85
2021/12/02 07:38:18;;;;;;;2.77;0.70;;;;;;;3.89;73.09;97987.05;3435324;84;98538;-86
2021/12/02 07:43:21;;;;;;;3.75;1.70;;;;;;;3.89;73.50;98008.02;3374425;85;98360;-86
2021/12/02 07:48:23;;;;;;;2.10;0.60;;;;;;;3.89;72.72;97994.41;3326102;87;98445;-87
2021/12/02 07:53:24;;;;;;;2.43;0.83;;;;;;;3.89;73.49;98004.72;3321037;86;98734;-85
2021/12/02 07:58:25;;;;;;;4.60;1.10;;;;;;;3.89;73.33;98012.88;3390293;85;25857;-84
2021/12/02 08:03:27;;;;;;;3.67;1.00;;;;;;;3.92;73.50;98020.25;3372311;85;98748;-86
2021/12/02 08:08:28;;;;;;;3.00;1.10;;;;;;;3.95;73.56;98035.80;3448889;83;97376;-85
2021/12/02 08:13:30;;;;;;;3.27;0.90;;;;;;;3.99;73.19;98047.44;3440407;84;98315;-84
2021/12/02 08:18:32;;;;;;;4.17;1.77;;;;;;;3.99;73.19;98047.44;3458158;84;98341;-89
2021/12/02 08:23:33;;;;;;;4.80;1.00;;;;;;;4.02;71.35;98077.17;3437722;83;98466;-87
2021/12/02 08:28:34;;;;;;;2.67;0.40;;;;;;;4.01;70.32;98060.66;3449853;84;30005;-85
2021/12/02 08:33:34;;;;;;;4.57;1.03;;;;;;;4.04;70.52;98087.11;3450957;84;98030;-85
2021/12/02 08:38:36;;;;;;;7.33;0.77;;;;;;;4.03;69.92;98109.45;3452136;84;98231;-85
2021/12/02 08:43:37;;;;;;;3.80;1.17;;;;;;;4.02;69.87;98111.98;3446776;84;98892;-84
2021/12/02 08:48:38;;;;;;;4.87;1.53;;;;;;;3.98;70.39;98118.00;3446945;84;98304;-84
2021/12/02 08:53:39;;;;;;;2.30;0.80;;;;;;;3.92;70.51;98125.00;3444621;83;98362;-85
2021/12/02 08:58:39;;;;;;;1.80;0.90;;;;;;;3.86;71.39;98137.44;3444063;84;32488;-84
2021/12/02 09:03:40;;;;;;;5.27;1.73;;;;;;;3.82;72.39;98142.69;3416962;83;3419178;-85
2021/12/02 09:08:42;;;;;;;2.60;0.80;;;;;;;3.80;72.28;98140.91;3455521;84;98590;-85
2021/12/02 09:13:43;;;;;;;3.37;0.97;;;;;;;3.79;73.30;98149.68;3447060;84;98288;-85
2021/12/02 09:18:44;;;;;;;4.20;0.80;;;;;;;3.84;73.08;98145.22;3453338;84;98302;-83
2021/12/02 09:23:44;;;;;;;4.67;1.00;;;;;;;3.86;73.40;98149.67;3452138;84;98536;-83
2021/12/02 09:28:52;;;;;;;3.47;0.93;;;;;;;3.88;73.36;98145.22;3455409;84;39354;-87
2021/12/02 09:33:49;;;;;;;8.77;2.50;;;;;;;3.92;73.70;98168.53;3446618;83;98282;-82
2021/12/02 09:38:50;;;;;;;12.70;2.50;;;;;;;3.88;73.00;98152.02;3451668;84;98196;-83
2021/12/02 09:43:50;;;;;;;8.20;2.23;;;;;;;3.93;73.48;98170.68;3452180;83;124528;-82
2021/12/02 09:48:56;;;;;;;6.60;2.07;;;;;;;3.92;73.06;98171.25;3454829;84;98598;-84
2021/12/02 09:54:06;;;;;;;6.17;1.57;;;;;;;3.91;72.96;98169.70;3466916;84;98308;-83
2021/12/02 09:59:13;;;;;;;10.65;2.60;;;;;;;3.92;73.03;98171.82;3450779;84;98423;-82
2021/12/02 10:04:10;;;;;;;5.93;1.50;;;;;;;3.94;73.59;98170.87;3444290;84;98331;-82
2021/12/02 10:09:39;;;;;;;5.83;1.70;;;;;;;3.92;71.90;98179.41;3446542;84;98125;-82
2021/12/02 10:14:44;;;;;;;6.13;1.30;;;;;;;3.89;72.10;98185.64;3447773;84;98477;-83
2021/12/02 10:25:31;;;;;;;;;;;;;;;3.86;71.04;98220.41;3347941;83;7102821;-83
2021/12/02 10:30:32;;;;;;;4.23;1.13;;;;;;;3.91;69.15;98236.93;3458676;84;84664;-82
2021/12/02 10:35:45;;;;;;;4.55;1.07;;;;;;;3.97;70.17;98228.01;3451770;84;98480;-85
2021/12/02 10:40:59;;;;;;;4.27;1.37;;;;;;;4.04;69.69;98232.09;3462473;83;27482;-83
2021/12/02 10:46:19;;;;;;;4.62;1.07;;;;;;;4.12;69.57;98242.41;3454000;83;98270;-82
2021/12/02 10:51:50;;;;;;;3.97;1.20;;;;;;;4.16;69.90;98235.80;3457318;84;98118;-85
2021/12/02 10:56:56;;;;;;;5.13;1.20;;;;;;;4.20;69.98;98233.86;3385237;85;98152;-85
2021/12/02 11:02:08;;;;;;;4.47;1.03;;;;;;;4.28;70.21;98252.34;3360328;85;98423;-87
2021/12/02 11:07:44;;;;;;;7.20;1.90;;;;;;;4.34;70.27;98252.16;3390591;85;98868;-84
2021/12/02 11:12:48;;;;;;;2.35;0.90;;;;;;;4.40;71.08;98241.86;3327939;85;4030200;-85
2021/12/02 11:17:54;;;;;;;5.83;1.40;;;;;;;4.46;70.57;98253.92;3463933;83;98688;-81
2021/12/02 11:23:10;;;;;;;4.17;0.95;;;;;;;4.48;70.56;98257.02;3370734;85;98729;-84
2021/12/02 11:28:11;;;;;;;4.50;1.20;;;;;;;4.49;68.60;98255.87;3478967;83;97984;-84
2021/12/02 11:33:12;;;;;;;4.23;1.43;;;;;;;4.45;69.71;98278.23;3398591;84;165217;-84
2021/12/02 11:38:35;;;;;;;2.87;0.90;;;;;;;4.49;69.28;98302.17;3373413;85;98539;-84
2021/12/02 11:43:39;;;;;;;4.07;1.30;;;;;;;4.57;68.69;98294.77;3325313;86;98475;-84
2021/12/02 11:48:42;;;;;;;3.13;0.90;;;;;;;4.59;68.71;98304.10;3346320;86;139954;-86
2021/12/02 11:53:44;;;;;;;3.35;0.70;;;;;;;4.50;69.13;98310.53;3343471;86;98570;-83
2021/12/02 11:58:46;;;;;;;4.07;0.80;;;;;;;4.43;69.44;98327.45;3358692;86;31594;-84
2021/12/02 12:04:08;;;;;;;2.55;0.93;;;;;;;4.40;68.99;98329.56;3358094;86;228877;-84
2021/12/02 12:09:18;;;;;;;3.27;0.97;;;;;;;4.42;69.91;98341.63;3369526;85;98444;-84
2021/12/02 12:14:48;;;;;;;4.62;0.90;;;;;;;4.43;70.47;98337.73;3395722;85;98628;-86
2021/12/02 12:19:46;;;;;;;3.85;0.85;;;;;;;4.38;70.63;98342.80;3367158;82;5782729;-86
2021/12/02 12:24:56;;;;;;;3.93;0.90;;;;;;;4.37;70.92;98344.73;3463308;83;98987;-86
2021/12/02 12:30:19;;;;;;;3.67;1.13;;;;;;;4.44;71.01;98356.23;3472249;83;98393;-86
2021/12/02 12:35:31;;;;;;;3.77;0.93;;;;;;;4.48;71.15;98378.81;3456906;83;98739;-85
2021/12/02 12:40:40;;;;;;;5.40;0.80;;;;;;;4.51;71.17;98368.48;3458465;83;42512;-86
2021/12/02 12:45:43;;;;;;;3.30;0.60;;;;;;;4.54;70.31;98380.75;3472752;83;98202;-84
2021/12/02 12:50:47;;;;;;;2.57;0.87;;;;;;;4.54;69.96;98386.80;3453370;84;98223;-84
2021/12/02 12:55:54;;;;;;;2.27;1.60;;;;;;;4.53;70.61;98400.22;3443877;84;98529;-87
2021/12/02 13:01:03;;;;;;;6.57;1.50;;;;;;;4.50;70.56;98403.70;3403870;85;113082;-86
2021/12/02 13:06:22;;;;;;;3.03;1.00;;;;;;;4.47;70.47;98416.14;3399409;84;98568;-86
2021/12/02 13:11:29;;;;;;;3.60;0.80;;;;;;;4.45;70.52;98416.33;3421135;84;98310;-86
2021/12/02 13:16:35;;;;;;;3.27;0.97;;;;;;;4.40;70.13;98420.78;3400544;85;41542;-83
2021/12/02 13:21:36;;;;;;;1.93;0.77;;;;;;;4.36;70.82;98437.72;3398452;85;100089;-83
2021/12/02 13:26:44;;;;;;;3.87;1.20;;;;;;;4.32;71.42;98437.67;3407655;85;98394;-84
2021/12/02 13:31:55;;;;;;;4.45;1.72;;;;;;;4.27;70.78;98441.37;3389655;85;98614;-85
2021/12/02 13:37:05;;;;;;;7.07;1.70;;;;;;;4.19;71.20;98452.80;3390671;84;98382;-82
2021/12/02 13:42:13;;;;;;;4.50;1.20;;;;;;;4.15;71.39;98456.08;3392651;84;98449;-83
2021/12/02 13:47:20;;;;;;;5.00;1.27;;;;;;;4.07;70.72;98467.31;3383669;85;27587;-84
2021/12/02 13:57:41;;;;;;;4.65;1.17;;;;;;;3.90;71.12;98486.48;3374956;85;97626;-84
2021/12/02 14:02:40;;;;;;;8.40;1.80;;;;;;;3.86;71.85;98503.36;3347922;86;98848;-85
2021/12/02 14:07:45;;;;;;;4.67;1.60;;;;;;;3.83;73.09;98502.74;3336429;86;98786;-83
2021/12/02 14:13:05;;;;;;;3.43;1.40;;;;;;;3.78;71.40;98511.84;3374718;85;97979;-83
2021/12/02 14:18:14;;;;;;;5.83;2.33;;;;;;;3.68;71.43;98532.38;3377988;85;98430;-85
2021/12/02 14:23:26;;;;;;;6.92;2.12;;;;;;;3.63;71.65;98553.13;3349194;86;98362;-83
2021/12/02 14:28:48;;;;;;;19.27;7.03;;;;;;;3.56;71.95;98557.72;3368157;83;100021;-84
2021/12/02 14:33:51;;;;;;;4.57;2.07;;;;;;;3.52;72.28;98563.70;3396219;84;122455;-84
2021/12/02 14:39:06;;;;;;;6.17;1.70;;;;;;;3.46;72.49;98574.72;3335608;87;98411;-85
2021/12/02 14:44:19;;;;;;;17.43;5.07;;;;;;;3.40;72.66;98582.45;3474934;83;98367;-84
2021/12/02 14:49:33;;;;;;;11.60;3.40;;;;;;;3.35;72.64;98600.45;3379333;84;98537;-85
2021/12/02 14:54:41;;;;;;;5.42;1.57;;;;;;;3.30;73.03;98606.23;3403280;84;98191;-82
2021/12/02 14:59:45;;;;;;;4.27;1.70;;;;;;;3.26;72.42;98616.27;3378144;85;104844;-83
2021/12/02 15:04:54;;;;;;;11.63;3.58;;;;;;;3.21;72.44;98625.33;3382268;85;98482;-86
2021/12/02 15:10:14;;;;;;;4.35;1.35;;;;;;;3.17;72.85;98636.76;3407484;84;98430;-84
2021/12/02 15:15:25;;;;;;;4.07;1.20;;;;;;;3.15;72.61;98634.97;3385686;85;98101;-84
2021/12/02 15:20:30;;;;;;;3.23;0.93;;;;;;;3.11;72.74;98638.24;3467257;83;98371;-84
2021/12/02 15:25:39;;;;;;;4.10;1.20;;;;;;;3.11;72.90;98651.23;3474292;83;98307;-84
2021/12/02 15:30:57;;;;;;;4.07;1.27;;;;;;;3.09;72.59;98667.14;3410360;84;98420;-82
2021/12/02 15:36:01;;;;;;;2.20;1.00;;;;;;;3.10;72.94;98675.49;3398038;85;98391;-83
2021/12/02 15:41:05;;;;;;;7.17;1.10;;;;;;;3.08;72.75;98679.17;3403095;85;30316;-83
2021/12/02 15:46:06;;;;;;;4.93;1.37;;;;;;;3.08;72.94;98687.88;3472846;83;98188;-83
2021/12/02 15:51:07;;;;;;;5.63;1.37;;;;;;;3.07;73.22;98706.70;3465671;83;98037;-84
2021/12/02 15:56:08;;;;;;;5.55;1.70;;;;;;;3.08;73.50;98712.34;3392744;85;98234;-83
2021/12/02 16:01:11;;;;;;;6.37;1.70;;;;;;;3.07;73.92;98718.93;3374163;85;98356;-84
2021/12/02 16:11:23;;;;;;;10.23;2.53;;;;;;;3.03;74.24;98720.81;3346782;87;42416;-83
2021/12/02 16:16:23;;;;;;;7.00;2.13;;;;;;;3.04;74.31;98728.60;3370033;86;98315;-83
2021/12/02 16:21:24;;;;;;;8.90;2.23;;;;;;;3.04;74.59;98728.60;3455374;83;98674;-84
2021/12/02 16:26:26;;;;;;;6.73;1.90;;;;;;;3.03;74.70;98738.47;3352695;86;98697;-83
2021/12/02 16:31:27;;;;;;;9.18;2.65;;;;;;;3.00;74.70;98740.59;3475852;83;98688;-84
2021/12/02 16:36:28;;;;;;;6.37;2.60;;;;;;;2.99;75.00;98750.66;3348462;85;98073;-86
2021/12/02 16:41:30;;;;;;;9.97;3.37;;;;;;;2.97;74.84;98747.53;3401568;85;97499;-85
2021/12/02 16:46:33;;;;;;;9.70;2.87;;;;;;;2.95;75.23;98755.84;3385106;85;26769;-85
2021/12/02 16:51:36;;;;;;;6.47;1.70;;;;;;;2.94;75.06;98756.97;3354662;85;98442;-87
2021/12/02 16:56:37;;;;;;;9.43;2.60;;;;;;;2.90;75.24;98767.79;3448374;83;98345;-85
2021/12/02 17:01:39;;;;;;;5.40;1.67;;;;;;;2.88;75.46;98770.66;3486788;83;98584;-87
2021/12/02 17:06:40;;;;;;;7.83;1.50;;;;;;;2.83;75.63;98777.20;3484669;83;97570;-83
2021/12/02 17:11:42;;;;;;;9.13;2.80;;;;;;;2.76;75.74;98782.53;3400526;85;98459;-85
2021/12/02 17:16:44;;;;;;;11.03;3.43;;;;;;;2.66;75.87;98783.71;3410037;85;27483;-84
2021/12/02 17:21:45;;;;;;;9.10;2.70;;;;;;;2.62;76.14;98803.26;3471089;83;98812;-84
2021/12/02 17:26:48;;;;;;;10.03;2.63;;;;;;;2.55;76.28;98813.98;3479010;83;98734;-86
2021/12/02 17:31:49;;;;;;;6.85;2.33;;;;;;;2.46;76.42;98829.75;3465249;83;98880;-83
2021/12/02 17:36:52;;;;;;;8.47;2.10;;;;;;;2.38;76.60;98829.41;3448222;83;98343;-85
2021/12/02 17:41:56;;;;;;;7.67;1.90;;;;;;;2.28;76.73;98836.22;3381154;86;98737;-85
2021/12/02 17:47:02;;;;;;;6.53;2.20;;;;;;;2.21;77.02;98849.66;3403600;85;28396;-84
2021/12/02 17:52:04;;;;;;;7.28;2.02;;;;;;;2.18;77.28;98844.18;3371300;85;98522;-86
2021/12/02 17:57:06;;;;;;;22.90;5.97;;;;;;;2.15;77.37;98841.61;3385146;85;98647;-86
2021/12/02 18:02:09;;;;;;;19.23;5.13;;;;;;;2.13;77.45;98860.16;3368298;85;98543;-85
2021/12/02 18:07:10;;;;;;;12.53;3.43;;;;;;;2.13;77.55;98859.39;3401307;85;99077;-85
2021/12/02 18:12:12;;;;;;;9.90;2.53;;;;;;;2.14;77.48;98869.86;3369825;86;98582;-85
2021/12/02 18:17:13;;;;;;;7.03;2.03;;;;;;;2.17;77.44;98873.79;3358305;87;28695;-85
2021/12/02 18:22:15;;;;;;;5.67;1.80;;;;;;;2.19;77.38;98875.59;3362301;86;98617;-85
2021/12/02 18:27:20;;;;;;;7.40;2.00;;;;;;;2.20;77.53;98887.42;3368222;86;98250;-86
2021/12/02 18:32:21;;;;;;;5.90;1.50;;;;;;;2.23;77.75;98896.78;3355648;86;98670;-84
2021/12/02 18:37:22;;;;;;;6.97;1.65;;;;;;;2.25;77.83;98897.98;3482854;83;98367;-86
2021/12/02 18:42:25;;;;;;;6.77;2.03;;;;;;;2.26;77.76;98902.86;3342728;86;98854;-85
2021/12/02 18:47:26;;;;;;;7.23;2.80;;;;;;;2.25;77.35;98915.62;3330354;87;34765;-85
2021/12/02 18:52:28;;;;;;;5.40;1.30;;;;;;;2.25;77.44;98921.06;3353446;86;98494;-83
2021/12/02 18:57:30;;;;;;;4.90;1.60;;;;;;;2.25;77.06;98929.78;3342752;86;98323;-86
2021/12/02 19:02:37;;;;;;;8.40;2.47;;;;;;;2.25;76.93;98934.63;3449842;83;98390;-84
2021/12/02 19:07:55;;;;;;;7.17;1.80;;;;;;;2.24;76.85;98943.92;3476221;83;97607;-87
2021/12/02 19:23:20;;;;;;;14.23;4.25;;;;;;;2.22;77.46;98947.57;3451695;83;97983;-87
2021/12/02 19:28:14;;;;;;;10.53;3.27;;;;;;;2.22;77.78;98957.63;3474450;84;97668;-83
2021/12/02 19:33:15;;;;;;;8.13;2.33;;;;;;;2.21;77.82;98960.14;3473348;83;98424;-86
2021/12/02 19:38:20;;;;;;;11.37;3.80;;;;;;;2.19;77.99;98974.05;3476585;84;98494;-86
2021/12/02 19:43:26;;;;;;;12.57;4.23;;;;;;;2.18;78.07;98975.20;3470135;83;99377;-86
2021/12/02 19:48:27;;;;;;;22.60;7.63;;;;;;;2.18;78.20;98981.22;3468487;83;98614;-84
2021/12/02 19:53:28;;;;;;;6.23;2.27;;;;;;;2.17;78.62;98983.69;3458154;83;98156;-86
2021/12/02 19:58:29;;;;;;;14.17;5.30;;;;;;;2.13;78.55;98988.28;3460280;83;98440;-86
2021/12/02 20:03:30;;;;;;;9.88;2.77;;;;;;;2.08;79.07;98990.69;3396372;85;98281;-86
2021/12/02 20:08:32;;;;;;;9.50;3.00;;;;;;;1.99;79.03;98983.34;3402758;85;97521;-86
2021/12/02 20:13:37;;;;;;;9.23;3.50;;;;;;;1.91;79.34;98984.31;3364714;85;98851;-85
2021/12/02 20:18:41;;;;;;;10.57;4.67;;;;;;;1.80;79.59;98984.65;3439290;84;98405;-86
2021/12/02 20:23:41;;;;;;;8.87;3.60;;;;;;;1.71;79.94;98995.48;3447009;84;98562;-86
2021/12/02 20:28:42;;;;;;;11.20;4.13;;;;;;;1.60;80.21;99002.58;3457640;84;39534;-86
2021/12/02 20:33:43;;;;;;;8.97;3.03;;;;;;;1.52;80.68;99013.02;3449292;84;98619;-86
2021/12/02 20:38:46;;;;;;;12.60;3.37;;;;;;;1.41;81.01;99021.47;3452117;84;98301;-86
2021/12/02 20:44:11;;;;;;;;;;;;;;;;;;;;;
2021/12/02 20:49:13;;;;;;;12.50;3.77;;;;;;;1.25;81.98;99030.17;3441382;84;245573;-86
2021/12/02 20:54:12;;;;;;;18.42;5.62;;;;;;;1.20;82.35;99042.65;3424696;83;2258354;-85
2021/12/02 20:59:16;;;;;;;22.63;6.30;;;;;;;1.14;82.85;99042.11;3454906;84;26875;-85
2021/12/02 21:04:16;;;;;;;25.20;8.03;;;;;;;1.11;83.33;99053.63;3394912;84;148373;-86
2021/12/02 21:09:17;;;;;;;23.20;7.37;;;;;;;1.10;83.86;99066.19;3445741;84;98433;-86
2021/12/02 21:14:19;;;;;;;17.97;7.50;;;;;;;1.07;84.06;99078.50;3457489;84;98501;-86
2021/12/02 21:19:21;;;;;;;11.53;4.40;;;;;;;1.06;84.53;99078.84;3390004;85;98470;-86
2021/12/02 21:24:22;;;;;;;8.50;2.90;;;;;;;1.05;85.04;99092.17;3445271;84;98573;-86
2021/12/02 21:29:25;;;;;;;8.77;3.33;;;;;;;1.03;86.00;99093.06;3383694;85;27611;-86
2021/12/02 21:34:32;;;;;;;11.05;4.00;;;;;;;1.04;86.32;99103.55;3447870;84;98088;-86
2021/12/02 21:39:36;;;;;;;9.78;2.75;;;;;;;1.04;86.79;99108.97;3457335;83;98389;-87
2021/12/02 21:44:40;;;;;;;7.70;2.95;;;;;;;1.06;87.53;99112.70;3451775;84;98300;-87
2021/12/02 21:49:41;;;;;;;43.67;14.80;;;;;;;1.08;88.05;99128.83;3457130;83;98278;-86
2021/12/02 21:54:44;;;;;;;54.03;15.30;;;;;;;1.11;88.67;99126.77;3449644;83;98724;-86
2021/12/02 21:59:48;;;;;;;16.80;4.93;;;;;;;1.13;89.00;99127.78;3456685;84;98734;-86
2021/12/02 22:04:48;;;;;;;6.15;2.65;;;;;;;1.16;89.51;99129.23;3377259;84;98403;-87
2021/12/02 22:09:48;;;;;;;13.73;5.37;;;;;;;1.18;89.78;99149.20;3445646;84;98186;-86
2021/12/02 22:14:50;;;;;;;11.87;5.40;;;;;;;1.22;90.24;99165.77;3449525;84;98429;-87
2021/12/02 22:19:51;;;;;;;11.33;5.83;;;;;;;1.26;90.23;99161.25;3460621;84;98554;-85
2021/12/02 22:24:52;;;;;;;12.18;5.20;;;;;;;1.31;90.59;99165.66;3440984;84;98621;-83
2021/12/02 22:29:53;;;;;;;9.47;2.80;;;;;;;1.30;91.05;99170.27;3449492;84;98551;-85
2021/12/02 22:34:53;;;;;;;6.93;2.73;;;;;;;1.33;90.82;99183.70;3442389;84;98148;-86
2021/12/02 22:39:59;;;;;;;7.47;3.13;;;;;;;1.35;91.08;99187.64;3456499;83;98090;-85
2021/12/02 22:45:02;;;;;;;6.58;2.40;;;;;;;1.40;91.07;99194.72;3456762;84;98478;-85
2021/12/02 22:50:06;;;;;;;5.97;2.40;;;;;;;1.43;91.08;99191.33;3458097;84;98435;-85
2021/12/02 22:55:10;;;;;;;7.87;2.40;;;;;;;1.43;91.18;99191.33;3450768;84;98396;-87
2021/12/02 23:00:28;;;;;;;6.80;3.05;;;;;;;1.38;90.98;99201.84;3462866;84;98290;-86
2021/12/02 23:05:30;;;;;;;8.10;2.97;;;;;;;1.36;90.91;99203.31;3452903;84;98725;-87
2021/12/02 23:10:31;;;;;;;8.50;2.70;;;;;;;1.31;90.81;99225.27;3460786;84;97184;-87
2021/12/02 23:15:32;;;;;;;8.63;2.80;;;;;;;1.28;90.87;99234.88;3433142;84;98264;-88
2021/12/02 23:20:33;;;;;;;7.92;3.42;;;;;;;1.26;90.94;99237.13;3463757;83;98382;-87
2021/12/02 23:25:35;;;;;;;6.73;2.80;;;;;;;1.25;91.02;99240.17;3386630;85;98436;-85
2021/12/02 23:30:43;;;;;;;7.17;2.90;;;;;;;1.23;91.17;99244.61;3397467;85;98652;-85
2021/12/02 23:35:45;;;;;;;6.67;3.03;;;;;;;1.20;91.29;99252.64;3452184;83;98418;-84
2021/12/02 23:40:48;;;;;;;8.10;2.83;;;;;;;1.21;91.44;99254.98;3454688;84;38685;-83
2021/12/02 23:45:53;;;;;;;6.50;2.50;;;;;;;1.18;91.51;99259.75;3456534;84;98037;-83
2021/12/02 23:50:55;;;;;;;4.57;2.10;;;;;;;1.17;91.50;99271.72;3460155;84;98166;-84
2021/12/02 23:55:57;;;;;;;5.30;1.40;;;;;;;1.17;91.20;99269.02;3441955;84;98453;-85
